sensor_id;sensor_type;location;lat;lon;timestamp;P1;durP1;ratioP1;P2;durP2;ratioP2
44169;SDS011;29836;52.286;9.576;2022-11-21T00:01:13;16.73;;;7.50;;
44169;SDS011;29836;52.286;9.576;2022-11-21T00:03:44;13.13;;;6.40;;
44169;SDS011;29836;52.286;9.576;2022-11-21T00:06:09;17.48;;;6.35;;
44169;SDS011;29836;52.286;9.576;2022-11-21T00:08:35;12.95;;;6.25;;
44169;SDS011;29836;52.286;9.576;2022-11-21T00:11:00;14.23;;;7.13;;
44169;SDS011;29836;52.286;9.576;2022-11-21T00:13:26;13.48;;;6.43;;
44169;SDS011;29836;52.286;9.576;2022-11-21T00:15:51;10.52;;;5.20;;
44169;SDS011;29836;52.286;9.576;2022-11-21T00:18:17;13.48;;;6.18;;
44169;SDS011;29836;52.286;9.576;2022-11-21T00:20:43;11.88;;;6.30;;
44169;SDS011;29836;52.286;9.576;2022-11-21T00:23:09;13.00;;;5.75;;
44169;SDS011;29836;52.286;9.576;2022-11-21T00:25:35;13.70;;;6.18;;
44169;SDS011;29836;52.286;9.576;2022-11-21T00:28:01;15.27;;;7.90;;
44169;SDS011;29836;52.286;9.576;2022-11-21T00:30:27;12.68;;;6.68;;
44169;SDS011;29836;52.286;9.576;2022-11-21T00:32:53;13.60;;;6.10;;
44169;SDS011;29836;52.286;9.576;2022-11-21T00:35:19;13.88;;;6.00;;
44169;SDS011;29836;52.286;9.576;2022-11-21T00:37:44;12.30;;;7.07;;
44169;SDS011;29836;52.286;9.576;2022-11-21T00:40:12;16.90;;;6.85;;
44169;SDS011;29836;52.286;9.576;2022-11-21T00:42:38;13.68;;;7.35;;
44169;SDS011;29836;52.286;9.576;2022-11-21T00:45:03;18.23;;;8.50;;
44169;SDS011;29836;52.286;9.576;2022-11-21T00:47:29;15.68;;;6.63;;
44169;SDS011;29836;52.286;9.576;2022-11-21T00:49:55;14.27;;;6.03;;
44169;SDS011;29836;52.286;9.576;2022-11-21T00:52:20;11.30;;;6.07;;
44169;SDS011;29836;52.286;9.576;2022-11-21T00:54:46;11.80;;;5.80;;
44169;SDS011;29836;52.286;9.576;2022-11-21T00:57:11;14.27;;;6.43;;
44169;SDS011;29836;52.286;9.576;2022-11-21T00:59:37;11.07;;;5.82;;
44169;SDS011;29836;52.286;9.576;2022-11-21T01:02:02;12.43;;;6.20;;
44169;SDS011;29836;52.286;9.576;2022-11-21T01:04:30;13.73;;;6.78;;
44169;SDS011;29836;52.286;9.576;2022-11-21T01:06:57;15.55;;;6.95;;
44169;SDS011;29836;52.286;9.576;2022-11-21T01:09:22;14.20;;;6.13;;
44169;SDS011;29836;52.286;9.576;2022-11-21T01:11:48;11.43;;;4.72;;
44169;SDS011;29836;52.286;9.576;2022-11-21T01:14:13;12.20;;;5.55;;
44169;SDS011;29836;52.286;9.576;2022-11-21T01:16:39;9.85;;;5.18;;
44169;SDS011;29836;52.286;9.576;2022-11-21T01:19:05;13.00;;;6.13;;
44169;SDS011;29836;52.286;9.576;2022-11-21T01:21:30;8.45;;;4.28;;
44169;SDS011;29836;52.286;9.576;2022-11-21T01:24:00;11.02;;;4.82;;
44169;SDS011;29836;52.286;9.576;2022-11-21T01:26:27;9.82;;;4.05;;
44169;SDS011;29836;52.286;9.576;2022-11-21T01:28:54;9.98;;;4.40;;
44169;SDS011;29836;52.286;9.576;2022-11-21T01:31:27;7.95;;;4.38;;
44169;SDS011;29836;52.286;9.576;2022-11-21T01:33:55;8.02;;;4.13;;
44169;SDS011;29836;52.286;9.576;2022-11-21T01:38:52;8.65;;;4.05;;
44169;SDS011;29836;52.286;9.576;2022-11-21T01:41:20;9.70;;;5.03;;
44169;SDS011;29836;52.286;9.576;2022-11-21T01:43:57;11.73;;;4.15;;
44169;SDS011;29836;52.286;9.576;2022-11-21T01:46:24;9.00;;;4.05;;
44169;SDS011;29836;52.286;9.576;2022-11-21T01:48:54;8.73;;;4.20;;
44169;SDS011;29836;52.286;9.576;2022-11-21T02:00:04;5.78;;;3.13;;
44169;SDS011;29836;52.286;9.576;2022-11-21T02:02:12;4.80;;;2.55;;
44169;SDS011;29836;52.286;9.576;2022-11-21T02:04:40;7.25;;;3.35;;
44169;SDS011;29836;52.286;9.576;2022-11-21T02:07:07;7.07;;;2.63;;
44169;SDS011;29836;52.286;9.576;2022-11-21T02:09:35;13.88;;;3.83;;
44169;SDS011;29836;52.286;9.576;2022-11-21T02:12:04;5.97;;;3.33;;
44169;SDS011;29836;52.286;9.576;2022-11-21T02:14:34;6.03;;;3.28;;
44169;SDS011;29836;52.286;9.576;2022-11-21T02:17:03;6.78;;;3.35;;
44169;SDS011;29836;52.286;9.576;2022-11-21T02:24:57;7.78;;;4.43;;
44169;SDS011;29836;52.286;9.576;2022-11-21T02:27:22;10.50;;;4.22;;
44169;SDS011;29836;52.286;9.576;2022-11-21T02:29:48;9.25;;;4.22;;
44169;SDS011;29836;52.286;9.576;2022-11-21T02:32:24;8.63;;;4.78;;
44169;SDS011;29836;52.286;9.576;2022-11-21T02:34:56;12.95;;;6.13;;
44169;SDS011;29836;52.286;9.576;2022-11-21T02:37:21;7.78;;;4.10;;
44169;SDS011;29836;52.286;9.576;2022-11-21T02:39:47;8.45;;;4.43;;
44169;SDS011;29836;52.286;9.576;2022-11-21T02:44:42;9.52;;;4.80;;
44169;SDS011;29836;52.286;9.576;2022-11-21T02:47:25;9.45;;;4.55;;
44169;SDS011;29836;52.286;9.576;2022-11-21T02:52:20;8.93;;;3.70;;
44169;SDS011;29836;52.286;9.576;2022-11-21T02:54:46;7.57;;;3.83;;
44169;SDS011;29836;52.286;9.576;2022-11-21T02:57:12;8.52;;;4.00;;
44169;SDS011;29836;52.286;9.576;2022-11-21T02:59:37;21.90;;;5.65;;
44169;SDS011;29836;52.286;9.576;2022-11-21T03:02:03;10.63;;;4.10;;
44169;SDS011;29836;52.286;9.576;2022-11-21T03:04:28;11.13;;;4.85;;
44169;SDS011;29836;52.286;9.576;2022-11-21T03:06:54;13.75;;;6.05;;
44169;SDS011;29836;52.286;9.576;2022-11-21T03:09:19;12.00;;;6.35;;
44169;SDS011;29836;52.286;9.576;2022-11-21T03:11:45;15.43;;;6.45;;
44169;SDS011;29836;52.286;9.576;2022-11-21T03:14:10;10.52;;;5.53;;
44169;SDS011;29836;52.286;9.576;2022-11-21T03:16:36;18.50;;;7.85;;
44169;SDS011;29836;52.286;9.576;2022-11-21T03:19:02;16.08;;;6.03;;
44169;SDS011;29836;52.286;9.576;2022-11-21T03:21:27;16.33;;;7.10;;
44169;SDS011;29836;52.286;9.576;2022-11-21T03:23:53;21.42;;;9.38;;
44169;SDS011;29836;52.286;9.576;2022-11-21T03:26:18;16.58;;;7.13;;
44169;SDS011;29836;52.286;9.576;2022-11-21T03:28:44;11.88;;;5.93;;
44169;SDS011;29836;52.286;9.576;2022-11-21T03:31:10;13.88;;;6.10;;
44169;SDS011;29836;52.286;9.576;2022-11-21T03:33:35;19.15;;;6.75;;
44169;SDS011;29836;52.286;9.576;2022-11-21T03:36:01;21.33;;;6.85;;
44169;SDS011;29836;52.286;9.576;2022-11-21T03:38:26;13.02;;;7.10;;
44169;SDS011;29836;52.286;9.576;2022-11-21T03:40:52;20.73;;;8.05;;
44169;SDS011;29836;52.286;9.576;2022-11-21T03:43:17;17.65;;;6.97;;
44169;SDS011;29836;52.286;9.576;2022-11-21T03:45:46;16.55;;;7.70;;
44169;SDS011;29836;52.286;9.576;2022-11-21T03:48:12;13.18;;;6.68;;
44169;SDS011;29836;52.286;9.576;2022-11-21T03:50:41;17.65;;;6.97;;
44169;SDS011;29836;52.286;9.576;2022-11-21T03:53:07;14.07;;;7.03;;
44169;SDS011;29836;52.286;9.576;2022-11-21T03:55:33;13.88;;;6.18;;
44169;SDS011;29836;52.286;9.576;2022-11-21T03:57:58;15.38;;;6.32;;
44169;SDS011;29836;52.286;9.576;2022-11-21T04:00:24;15.02;;;5.55;;
44169;SDS011;29836;52.286;9.576;2022-11-21T04:02:49;19.95;;;7.45;;
44169;SDS011;29836;52.286;9.576;2022-11-21T04:05:15;13.98;;;6.60;;
44169;SDS011;29836;52.286;9.576;2022-11-21T04:07:40;11.63;;;4.82;;
44169;SDS011;29836;52.286;9.576;2022-11-21T04:10:06;12.70;;;6.10;;
44169;SDS011;29836;52.286;9.576;2022-11-21T04:12:32;13.88;;;6.00;;
44169;SDS011;29836;52.286;9.576;2022-11-21T04:14:57;13.70;;;5.70;;
44169;SDS011;29836;52.286;9.576;2022-11-21T04:17:23;17.08;;;7.18;;
44169;SDS011;29836;52.286;9.576;2022-11-21T04:19:48;21.30;;;7.30;;
44169;SDS011;29836;52.286;9.576;2022-11-21T04:22:14;22.00;;;7.68;;
44169;SDS011;29836;52.286;9.576;2022-11-21T04:24:39;19.00;;;5.85;;
44169;SDS011;29836;52.286;9.576;2022-11-21T04:27:05;12.60;;;5.47;;
44169;SDS011;29836;52.286;9.576;2022-11-21T04:29:30;15.13;;;6.75;;
44169;SDS011;29836;52.286;9.576;2022-11-21T04:31:56;17.40;;;7.47;;
44169;SDS011;29836;52.286;9.576;2022-11-21T04:34:21;18.20;;;6.88;;
44169;SDS011;29836;52.286;9.576;2022-11-21T04:36:47;18.17;;;6.78;;
44169;SDS011;29836;52.286;9.576;2022-11-21T04:39:12;20.02;;;7.07;;
44169;SDS011;29836;52.286;9.576;2022-11-21T04:41:38;18.13;;;7.78;;
44169;SDS011;29836;52.286;9.576;2022-11-21T04:44:04;16.25;;;6.28;;
44169;SDS011;29836;52.286;9.576;2022-11-21T04:46:29;17.33;;;6.65;;
44169;SDS011;29836;52.286;9.576;2022-11-21T04:48:55;15.52;;;7.15;;
44169;SDS011;29836;52.286;9.576;2022-11-21T04:51:20;17.65;;;6.45;;
44169;SDS011;29836;52.286;9.576;2022-11-21T04:53:46;20.00;;;7.80;;
44169;SDS011;29836;52.286;9.576;2022-11-21T04:56:11;18.27;;;7.20;;
44169;SDS011;29836;52.286;9.576;2022-11-21T04:58:40;20.33;;;7.25;;
44169;SDS011;29836;52.286;9.576;2022-11-21T05:01:09;23.02;;;9.18;;
44169;SDS011;29836;52.286;9.576;2022-11-21T05:03:35;23.05;;;9.13;;
44169;SDS011;29836;52.286;9.576;2022-11-21T05:06:00;25.60;;;8.20;;
44169;SDS011;29836;52.286;9.576;2022-11-21T05:08:26;15.93;;;6.93;;
44169;SDS011;29836;52.286;9.576;2022-11-21T05:10:52;17.23;;;7.38;;
44169;SDS011;29836;52.286;9.576;2022-11-21T05:13:36;25.73;;;7.95;;
44169;SDS011;29836;52.286;9.576;2022-11-21T05:16:02;18.15;;;7.40;;
44169;SDS011;29836;52.286;9.576;2022-11-21T05:18:28;17.80;;;6.72;;
44169;SDS011;29836;52.286;9.576;2022-11-21T05:20:54;14.73;;;7.95;;
44169;SDS011;29836;52.286;9.576;2022-11-21T05:23:20;22.48;;;7.90;;
44169;SDS011;29836;52.286;9.576;2022-11-21T05:25:45;22.17;;;8.85;;
44169;SDS011;29836;52.286;9.576;2022-11-21T05:28:11;19.83;;;8.30;;
44169;SDS011;29836;52.286;9.576;2022-11-21T05:30:36;21.08;;;7.90;;
44169;SDS011;29836;52.286;9.576;2022-11-21T05:33:02;16.52;;;7.85;;
44169;SDS011;29836;52.286;9.576;2022-11-21T05:35:28;24.55;;;9.07;;
44169;SDS011;29836;52.286;9.576;2022-11-21T05:37:54;29.95;;;8.85;;
44169;SDS011;29836;52.286;9.576;2022-11-21T05:40:23;19.13;;;7.97;;
44169;SDS011;29836;52.286;9.576;2022-11-21T05:42:49;24.92;;;8.38;;
44169;SDS011;29836;52.286;9.576;2022-11-21T05:45:33;22.02;;;7.93;;
44169;SDS011;29836;52.286;9.576;2022-11-21T05:47:59;21.58;;;7.32;;
44169;SDS011;29836;52.286;9.576;2022-11-21T05:50:25;20.35;;;7.38;;
44169;SDS011;29836;52.286;9.576;2022-11-21T05:52:51;19.58;;;7.57;;
44169;SDS011;29836;52.286;9.576;2022-11-21T05:55:16;22.95;;;7.93;;
44169;SDS011;29836;52.286;9.576;2022-11-21T05:57:42;24.38;;;8.70;;
44169;SDS011;29836;52.286;9.576;2022-11-21T06:00:07;21.88;;;8.15;;
44169;SDS011;29836;52.286;9.576;2022-11-21T06:02:33;24.50;;;7.38;;
44169;SDS011;29836;52.286;9.576;2022-11-21T06:05:17;25.40;;;7.80;;
44169;SDS011;29836;52.286;9.576;2022-11-21T06:07:43;21.92;;;7.85;;
44169;SDS011;29836;52.286;9.576;2022-11-21T06:10:09;18.90;;;8.02;;
44169;SDS011;29836;52.286;9.576;2022-11-21T06:12:34;24.45;;;9.15;;
44169;SDS011;29836;52.286;9.576;2022-11-21T06:15:00;30.75;;;9.00;;
44169;SDS011;29836;52.286;9.576;2022-11-21T06:17:25;26.20;;;8.95;;
44169;SDS011;29836;52.286;9.576;2022-11-21T06:19:51;21.17;;;9.30;;
44169;SDS011;29836;52.286;9.576;2022-11-21T06:22:16;25.55;;;8.32;;
44169;SDS011;29836;52.286;9.576;2022-11-21T06:24:42;20.90;;;8.07;;
44169;SDS011;29836;52.286;9.576;2022-11-21T06:27:07;20.75;;;8.48;;
44169;SDS011;29836;52.286;9.576;2022-11-21T06:29:33;26.58;;;8.27;;
44169;SDS011;29836;52.286;9.576;2022-11-21T06:31:59;20.30;;;7.88;;
44169;SDS011;29836;52.286;9.576;2022-11-21T06:34:25;23.80;;;7.60;;
44169;SDS011;29836;52.286;9.576;2022-11-21T06:36:50;23.67;;;9.40;;
44169;SDS011;29836;52.286;9.576;2022-11-21T06:39:16;29.95;;;7.20;;
44169;SDS011;29836;52.286;9.576;2022-11-21T06:41:42;20.38;;;6.70;;
44169;SDS011;29836;52.286;9.576;2022-11-21T06:44:07;18.95;;;7.63;;
44169;SDS011;29836;52.286;9.576;2022-11-21T06:46:33;18.50;;;7.75;;
44169;SDS011;29836;52.286;9.576;2022-11-21T06:48:58;17.73;;;7.00;;
44169;SDS011;29836;52.286;9.576;2022-11-21T06:51:24;22.67;;;8.35;;
44169;SDS011;29836;52.286;9.576;2022-11-21T06:53:53;21.48;;;7.82;;
44169;SDS011;29836;52.286;9.576;2022-11-21T06:56:21;19.55;;;6.82;;
44169;SDS011;29836;52.286;9.576;2022-11-21T06:58:47;18.52;;;7.68;;
44169;SDS011;29836;52.286;9.576;2022-11-21T07:01:13;21.63;;;7.15;;
44169;SDS011;29836;52.286;9.576;2022-11-21T07:03:39;24.23;;;7.63;;
44169;SDS011;29836;52.286;9.576;2022-11-21T07:06:05;22.63;;;8.95;;
44169;SDS011;29836;52.286;9.576;2022-11-21T07:08:31;35.38;;;8.77;;
44169;SDS011;29836;52.286;9.576;2022-11-21T07:11:00;27.63;;;8.15;;
44169;SDS011;29836;52.286;9.576;2022-11-21T07:13:28;28.27;;;8.73;;
44169;SDS011;29836;52.286;9.576;2022-11-21T07:15:54;26.85;;;7.80;;
44169;SDS011;29836;52.286;9.576;2022-11-21T07:18:25;35.20;;;10.38;;
44169;SDS011;29836;52.286;9.576;2022-11-21T07:20:51;22.05;;;8.50;;
44169;SDS011;29836;52.286;9.576;2022-11-21T07:23:16;28.10;;;9.25;;
44169;SDS011;29836;52.286;9.576;2022-11-21T07:25:42;35.88;;;11.07;;
44169;SDS011;29836;52.286;9.576;2022-11-21T07:28:08;31.42;;;9.25;;
44169;SDS011;29836;52.286;9.576;2022-11-21T07:30:34;31.23;;;12.02;;
44169;SDS011;29836;52.286;9.576;2022-11-21T07:33:01;31.35;;;11.15;;
44169;SDS011;29836;52.286;9.576;2022-11-21T07:35:29;32.63;;;10.68;;
44169;SDS011;29836;52.286;9.576;2022-11-21T07:37:55;26.23;;;10.75;;
44169;SDS011;29836;52.286;9.576;2022-11-21T07:40:21;31.33;;;10.80;;
44169;SDS011;29836;52.286;9.576;2022-11-21T07:42:47;25.88;;;9.50;;
44169;SDS011;29836;52.286;9.576;2022-11-21T07:45:12;28.15;;;10.80;;
44169;SDS011;29836;52.286;9.576;2022-11-21T07:47:38;27.88;;;10.15;;
44169;SDS011;29836;52.286;9.576;2022-11-21T07:50:05;28.52;;;11.38;;
44169;SDS011;29836;52.286;9.576;2022-11-21T07:52:31;34.58;;;11.00;;
44169;SDS011;29836;52.286;9.576;2022-11-21T07:54:57;27.60;;;11.65;;
44169;SDS011;29836;52.286;9.576;2022-11-21T07:57:23;27.30;;;9.88;;
44169;SDS011;29836;52.286;9.576;2022-11-21T07:59:49;25.05;;;8.45;;
44169;SDS011;29836;52.286;9.576;2022-11-21T08:02:18;22.42;;;8.82;;
44169;SDS011;29836;52.286;9.576;2022-11-21T08:04:45;21.48;;;7.43;;
44169;SDS011;29836;52.286;9.576;2022-11-21T08:07:11;16.25;;;6.13;;
44169;SDS011;29836;52.286;9.576;2022-11-21T08:09:37;19.73;;;7.95;;
44169;SDS011;29836;52.286;9.576;2022-11-21T08:12:03;23.15;;;8.75;;
44169;SDS011;29836;52.286;9.576;2022-11-21T08:14:28;26.02;;;9.68;;
44169;SDS011;29836;52.286;9.576;2022-11-21T08:16:54;18.20;;;8.82;;
44169;SDS011;29836;52.286;9.576;2022-11-21T08:19:19;20.15;;;9.30;;
44169;SDS011;29836;52.286;9.576;2022-11-21T08:21:45;20.88;;;9.52;;
44169;SDS011;29836;52.286;9.576;2022-11-21T08:24:10;25.05;;;10.63;;
44169;SDS011;29836;52.286;9.576;2022-11-21T08:26:38;19.27;;;9.35;;
44169;SDS011;29836;52.286;9.576;2022-11-21T08:29:04;22.17;;;9.98;;
44169;SDS011;29836;52.286;9.576;2022-11-21T08:31:30;17.00;;;9.40;;
44169;SDS011;29836;52.286;9.576;2022-11-21T08:33:56;15.98;;;8.95;;
44169;SDS011;29836;52.286;9.576;2022-11-21T08:36:22;21.63;;;10.75;;
44169;SDS011;29836;52.286;9.576;2022-11-21T08:38:48;16.67;;;8.50;;
44169;SDS011;29836;52.286;9.576;2022-11-21T08:41:13;11.80;;;5.60;;
44169;SDS011;29836;52.286;9.576;2022-11-21T08:43:58;12.23;;;6.20;;
44169;SDS011;29836;52.286;9.576;2022-11-21T08:46:23;12.13;;;5.72;;
44169;SDS011;29836;52.286;9.576;2022-11-21T08:48:52;10.75;;;5.68;;
44169;SDS011;29836;52.286;9.576;2022-11-21T08:51:19;10.27;;;4.95;;
44169;SDS011;29836;52.286;9.576;2022-11-21T08:53:44;9.45;;;4.47;;
44169;SDS011;29836;52.286;9.576;2022-11-21T08:56:10;7.97;;;3.78;;
44169;SDS011;29836;52.286;9.576;2022-11-21T08:58:35;9.20;;;4.20;;
44169;SDS011;29836;52.286;9.576;2022-11-21T09:01:01;10.82;;;5.25;;
44169;SDS011;29836;52.286;9.576;2022-11-21T09:03:27;9.65;;;5.45;;
44169;SDS011;29836;52.286;9.576;2022-11-21T09:05:54;7.25;;;4.15;;
44169;SDS011;29836;52.286;9.576;2022-11-21T09:08:21;11.40;;;5.32;;
44169;SDS011;29836;52.286;9.576;2022-11-21T09:10:46;10.18;;;5.50;;
44169;SDS011;29836;52.286;9.576;2022-11-21T09:13:12;10.30;;;5.13;;
44169;SDS011;29836;52.286;9.576;2022-11-21T09:15:37;10.82;;;5.13;;
44169;SDS011;29836;52.286;9.576;2022-11-21T09:18:21;10.15;;;5.03;;
44169;SDS011;29836;52.286;9.576;2022-11-21T09:20:47;8.80;;;4.82;;
44169;SDS011;29836;52.286;9.576;2022-11-21T09:23:13;8.63;;;4.22;;
44169;SDS011;29836;52.286;9.576;2022-11-21T09:25:39;9.30;;;4.43;;
44169;SDS011;29836;52.286;9.576;2022-11-21T09:28:07;9.35;;;4.88;;
44169;SDS011;29836;52.286;9.576;2022-11-21T09:30:34;8.27;;;4.15;;
44169;SDS011;29836;52.286;9.576;2022-11-21T09:33:04;7.60;;;4.40;;
44169;SDS011;29836;52.286;9.576;2022-11-21T09:35:31;7.13;;;3.75;;
44169;SDS011;29836;52.286;9.576;2022-11-21T09:37:57;7.35;;;4.43;;
44169;SDS011;29836;52.286;9.576;2022-11-21T09:40:22;9.82;;;4.43;;
44169;SDS011;29836;52.286;9.576;2022-11-21T09:42:52;8.27;;;4.50;;
44169;SDS011;29836;52.286;9.576;2022-11-21T09:45:46;8.80;;;4.38;;
44169;SDS011;29836;52.286;9.576;2022-11-21T09:48:18;10.02;;;4.63;;
44169;SDS011;29836;52.286;9.576;2022-11-21T09:50:55;6.72;;;4.18;;
44169;SDS011;29836;52.286;9.576;2022-11-21T09:53:26;6.72;;;3.90;;
44169;SDS011;29836;52.286;9.576;2022-11-21T09:55:58;8.15;;;4.43;;
44169;SDS011;29836;52.286;9.576;2022-11-21T09:58:41;7.78;;;3.58;;
44169;SDS011;29836;52.286;9.576;2022-11-21T10:01:11;6.60;;;3.42;;
44169;SDS011;29836;52.286;9.576;2022-11-21T10:03:44;7.18;;;3.53;;
44169;SDS011;29836;52.286;9.576;2022-11-21T10:06:15;8.75;;;4.15;;
44169;SDS011;29836;52.286;9.576;2022-11-21T10:09:05;6.45;;;3.20;;
44169;SDS011;29836;52.286;9.576;2022-11-21T10:17:23;5.82;;;3.33;;
44169;SDS011;29836;52.286;9.576;2022-11-21T10:25:42;8.55;;;3.70;;
44169;SDS011;29836;52.286;9.576;2022-11-21T10:31:03;8.75;;;4.45;;
44169;SDS011;29836;52.286;9.576;2022-11-21T10:33:35;7.82;;;3.78;;
44169;SDS011;29836;52.286;9.576;2022-11-21T10:36:11;7.85;;;3.83;;
44169;SDS011;29836;52.286;9.576;2022-11-21T10:38:40;11.13;;;4.22;;
44169;SDS011;29836;52.286;9.576;2022-11-21T10:41:23;9.23;;;4.25;;
44169;SDS011;29836;52.286;9.576;2022-11-21T10:44:10;8.38;;;4.65;;
44169;SDS011;29836;52.286;9.576;2022-11-21T10:47:11;9.10;;;4.40;;
44169;SDS011;29836;52.286;9.576;2022-11-21T10:52:35;7.70;;;4.50;;
44169;SDS011;29836;52.286;9.576;2022-11-21T10:55:14;10.10;;;4.68;;
44169;SDS011;29836;52.286;9.576;2022-11-21T10:57:45;11.88;;;4.40;;
44169;SDS011;29836;52.286;9.576;2022-11-21T11:02:41;8.38;;;3.92;;
44169;SDS011;29836;52.286;9.576;2022-11-21T11:05:29;8.93;;;3.97;;
44169;SDS011;29836;52.286;9.576;2022-11-21T11:10:28;10.77;;;4.03;;
44169;SDS011;29836;52.286;9.576;2022-11-21T11:12:55;8.57;;;3.88;;
44169;SDS011;29836;52.286;9.576;2022-11-21T11:18:27;8.85;;;4.82;;
44169;SDS011;29836;52.286;9.576;2022-11-21T11:20:52;7.88;;;4.07;;
44169;SDS011;29836;52.286;9.576;2022-11-21T11:23:39;9.48;;;4.03;;
44169;SDS011;29836;52.286;9.576;2022-11-21T11:26:13;8.45;;;4.47;;
44169;SDS011;29836;52.286;9.576;2022-11-21T11:28:44;8.85;;;4.57;;
44169;SDS011;29836;52.286;9.576;2022-11-21T11:31:10;9.98;;;4.57;;
44169;SDS011;29836;52.286;9.576;2022-11-21T11:33:36;8.32;;;3.90;;
44169;SDS011;29836;52.286;9.576;2022-11-21T11:36:12;8.85;;;4.15;;
44169;SDS011;29836;52.286;9.576;2022-11-21T11:38:41;7.13;;;4.15;;
44169;SDS011;29836;52.286;9.576;2022-11-21T11:44:57;7.97;;;4.00;;
44169;SDS011;29836;52.286;9.576;2022-11-21T11:47:55;8.75;;;3.83;;
44169;SDS011;29836;52.286;9.576;2022-11-21T11:50:30;8.40;;;4.38;;
44169;SDS011;29836;52.286;9.576;2022-11-21T12:04:21;11.68;;;5.13;;
44169;SDS011;29836;52.286;9.576;2022-11-21T12:06:50;9.73;;;4.78;;
44169;SDS011;29836;52.286;9.576;2022-11-21T12:18:27;8.23;;;3.80;;
44169;SDS011;29836;52.286;9.576;2022-11-21T12:23:35;7.53;;;3.35;;
44169;SDS011;29836;52.286;9.576;2022-11-21T12:31:14;9.77;;;4.32;;
44169;SDS011;29836;52.286;9.576;2022-11-21T12:33:51;8.30;;;4.53;;
44169;SDS011;29836;52.286;9.576;2022-11-21T12:36:44;9.20;;;4.55;;
44169;SDS011;29836;52.286;9.576;2022-11-21T12:51:06;6.93;;;3.70;;
44169;SDS011;29836;52.286;9.576;2022-11-21T12:57:09;9.02;;;4.80;;
44169;SDS011;29836;52.286;9.576;2022-11-21T13:05:29;9.43;;;4.78;;
44169;SDS011;29836;52.286;9.576;2022-11-21T13:08:05;7.93;;;4.10;;
44169;SDS011;29836;52.286;9.576;2022-11-21T13:10:34;9.60;;;4.30;;
44169;SDS011;29836;52.286;9.576;2022-11-21T13:13:08;6.47;;;3.63;;
44169;SDS011;29836;52.286;9.576;2022-11-21T13:15:47;8.65;;;3.75;;
44169;SDS011;29836;52.286;9.576;2022-11-21T13:18:45;7.18;;;3.63;;
44169;SDS011;29836;52.286;9.576;2022-11-21T13:24:05;8.55;;;4.45;;
44169;SDS011;29836;52.286;9.576;2022-11-21T13:29:10;10.27;;;5.47;;
44169;SDS011;29836;52.286;9.576;2022-11-21T13:31:39;10.05;;;4.63;;
44169;SDS011;29836;52.286;9.576;2022-11-21T13:37:06;8.20;;;4.15;;
44169;SDS011;29836;52.286;9.576;2022-11-21T13:39:33;7.93;;;3.60;;
44169;SDS011;29836;52.286;9.576;2022-11-21T13:42:00;7.95;;;4.10;;
44169;SDS011;29836;52.286;9.576;2022-11-21T13:44:46;9.25;;;4.45;;
44169;SDS011;29836;52.286;9.576;2022-11-21T13:47:30;8.40;;;4.07;;
44169;SDS011;29836;52.286;9.576;2022-11-21T13:53:09;10.38;;;4.72;;
44169;SDS011;29836;52.286;9.576;2022-11-21T13:58:33;6.30;;;3.92;;
44169;SDS011;29836;52.286;9.576;2022-11-21T14:04:20;9.02;;;5.13;;
44169;SDS011;29836;52.286;9.576;2022-11-21T14:09:45;8.15;;;5.05;;
44169;SDS011;29836;52.286;9.576;2022-11-21T14:12:20;10.23;;;4.78;;
44169;SDS011;29836;52.286;9.576;2022-11-21T14:20:23;9.85;;;4.82;;
44169;SDS011;29836;52.286;9.576;2022-11-21T14:25:34;8.93;;;4.68;;
44169;SDS011;29836;52.286;9.576;2022-11-21T14:28:07;9.90;;;4.35;;
44169;SDS011;29836;52.286;9.576;2022-11-21T14:30:37;9.27;;;4.38;;
44169;SDS011;29836;52.286;9.576;2022-11-21T14:33:21;8.23;;;4.03;;
44169;SDS011;29836;52.286;9.576;2022-11-21T14:35:49;8.63;;;4.40;;
44169;SDS011;29836;52.286;9.576;2022-11-21T14:38:40;10.07;;;3.65;;
44169;SDS011;29836;52.286;9.576;2022-11-21T14:46:22;9.45;;;5.30;;
44169;SDS011;29836;52.286;9.576;2022-11-21T14:51:39;7.65;;;4.20;;
44169;SDS011;29836;52.286;9.576;2022-11-21T14:54:21;7.00;;;4.38;;
44169;SDS011;29836;52.286;9.576;2022-11-21T14:56:53;9.18;;;4.70;;
44169;SDS011;29836;52.286;9.576;2022-11-21T14:59:25;7.57;;;4.13;;
44169;SDS011;29836;52.286;9.576;2022-11-21T15:01:58;7.22;;;4.00;;
44169;SDS011;29836;52.286;9.576;2022-11-21T15:04:27;8.13;;;4.13;;
44169;SDS011;29836;52.286;9.576;2022-11-21T15:06:55;8.93;;;4.30;;
44169;SDS011;29836;52.286;9.576;2022-11-21T15:09:21;10.70;;;5.03;;
44169;SDS011;29836;52.286;9.576;2022-11-21T15:11:51;10.38;;;5.50;;
44169;SDS011;29836;52.286;9.576;2022-11-21T15:14:35;9.57;;;4.97;;
44169;SDS011;29836;52.286;9.576;2022-11-21T15:17:07;9.88;;;5.65;;
44169;SDS011;29836;52.286;9.576;2022-11-21T15:19:37;9.45;;;5.45;;
44169;SDS011;29836;52.286;9.576;2022-11-21T15:22:05;7.45;;;3.92;;
44169;SDS011;29836;52.286;9.576;2022-11-21T15:24:33;10.00;;;5.28;;
44169;SDS011;29836;52.286;9.576;2022-11-21T15:27:26;6.85;;;4.53;;
44169;SDS011;29836;52.286;9.576;2022-11-21T15:30:04;10.15;;;4.95;;
44169;SDS011;29836;52.286;9.576;2022-11-21T15:32:57;9.77;;;3.97;;
44169;SDS011;29836;52.286;9.576;2022-11-21T15:35:51;8.55;;;4.15;;
44169;SDS011;29836;52.286;9.576;2022-11-21T15:46:02;8.05;;;4.22;;
44169;SDS011;29836;52.286;9.576;2022-11-21T15:48:35;10.43;;;5.95;;
44169;SDS011;29836;52.286;9.576;2022-11-21T15:51:01;15.43;;;5.95;;
44169;SDS011;29836;52.286;9.576;2022-11-21T15:53:26;8.98;;;5.55;;
44169;SDS011;29836;52.286;9.576;2022-11-21T15:55:52;10.65;;;4.82;;
44169;SDS011;29836;52.286;9.576;2022-11-21T15:58:17;9.93;;;4.93;;
44169;SDS011;29836;52.286;9.576;2022-11-21T16:00:43;8.48;;;4.10;;
44169;SDS011;29836;52.286;9.576;2022-11-21T16:03:09;9.93;;;5.30;;
44169;SDS011;29836;52.286;9.576;2022-11-21T16:05:35;8.50;;;5.22;;
44169;SDS011;29836;52.286;9.576;2022-11-21T16:08:00;6.93;;;3.80;;
44169;SDS011;29836;52.286;9.576;2022-11-21T16:10:26;7.60;;;4.15;;
44169;SDS011;29836;52.286;9.576;2022-11-21T16:12:51;8.55;;;4.15;;
44169;SDS011;29836;52.286;9.576;2022-11-21T16:15:17;8.20;;;5.30;;
44169;SDS011;29836;52.286;9.576;2022-11-21T16:17:43;9.23;;;4.35;;
44169;SDS011;29836;52.286;9.576;2022-11-21T16:20:09;8.05;;;4.43;;
44169;SDS011;29836;52.286;9.576;2022-11-21T16:22:35;11.25;;;4.93;;
44169;SDS011;29836;52.286;9.576;2022-11-21T16:25:00;7.85;;;3.75;;
44169;SDS011;29836;52.286;9.576;2022-11-21T16:27:26;7.65;;;3.83;;
44169;SDS011;29836;52.286;9.576;2022-11-21T16:29:52;8.95;;;4.43;;
44169;SDS011;29836;52.286;9.576;2022-11-21T16:32:17;8.05;;;3.97;;
44169;SDS011;29836;52.286;9.576;2022-11-21T16:34:43;11.80;;;5.25;;
44169;SDS011;29836;52.286;9.576;2022-11-21T16:37:08;6.60;;;4.18;;
44169;SDS011;29836;52.286;9.576;2022-11-21T16:39:34;8.55;;;3.80;;
44169;SDS011;29836;52.286;9.576;2022-11-21T16:41:59;12.20;;;4.60;;
44169;SDS011;29836;52.286;9.576;2022-11-21T16:44:25;8.48;;;4.25;;
44169;SDS011;29836;52.286;9.576;2022-11-21T16:46:53;9.52;;;5.25;;
44169;SDS011;29836;52.286;9.576;2022-11-21T16:49:19;10.27;;;5.93;;
44169;SDS011;29836;52.286;9.576;2022-11-21T16:51:45;8.40;;;4.07;;
44169;SDS011;29836;52.286;9.576;2022-11-21T16:54:10;9.70;;;4.95;;
44169;SDS011;29836;52.286;9.576;2022-11-21T16:56:36;9.52;;;4.57;;
44169;SDS011;29836;52.286;9.576;2022-11-21T16:59:02;10.18;;;5.68;;
44169;SDS011;29836;52.286;9.576;2022-11-21T17:01:27;12.50;;;5.88;;
44169;SDS011;29836;52.286;9.576;2022-11-21T17:03:53;9.07;;;5.05;;
44169;SDS011;29836;52.286;9.576;2022-11-21T17:06:21;9.80;;;5.20;;
44169;SDS011;29836;52.286;9.576;2022-11-21T17:08:50;11.95;;;5.75;;
44169;SDS011;29836;52.286;9.576;2022-11-21T17:11:17;9.40;;;4.85;;